Time;durP1;ratioP1;P1;durP2;ratioP2;P2;SDS_P1;SDS_P2;PMS_P1;PMS_P2;Temp;Humidity;BMP_temperature;BMP_pressure;BME280_temperature;BME280_humidity;BME280_pressure;Samples;Min_cycle;Max_cycle;Signal;HPM_P1;HPM_P2
2022/08/13 00:01:04;;;;;;;;;;;;;;;19.26;45.99;101186.22;5064267;28;19928;-77
2022/08/13 00:03:30;;;;;;;;;;;;;;;19.29;44.99;101187.03;5041405;28;19921;-77
2022/08/13 00:05:55;;;;;;;;;;;;;;;19.36;42.74;101183.16;5063782;28;19978;-77
2022/08/13 00:08:23;;;;;;;;;;;;;;;19.32;44.79;101192.13;5067507;28;20328;-76
2022/08/13 00:10:49;;;;;;;;;;;;;;;19.30;46.64;101192.22;5061773;28;20401;-76
2022/08/13 00:13:16;;;;;;;;;;;;;;;19.26;46.50;101193.25;5043918;28;19963;-77
2022/08/13 00:15:43;;;;;;;;;;;;;;;19.25;46.22;101194.22;5060129;28;20289;-77
2022/08/13 00:18:15;;;;;;;;;;;;;;;19.23;45.53;101188.16;5059522;28;20147;-77
2022/08/13 00:20:48;;;;;;;;;;;;;;;19.19;46.80;101192.72;5061579;28;20003;-77
2022/08/13 00:23:14;;;;;;;;;;;;;;;19.19;45.55;101186.63;5056174;28;19917;-77
2022/08/13 00:25:40;;;;;;;;;;;;;;;19.25;43.86;101186.31;5059154;28;19986;-76
2022/08/13 00:28:05;;;;;;;;;;;;;;;19.29;43.44;101179.97;5060185;28;20281;-77
2022/08/13 00:30:33;;;;;;;;;;;;;;;19.29;44.38;101184.38;5050461;28;19916;-77
2022/08/13 00:33:12;;;;;;;;;;;;;;;19.33;44.44;101189.44;5062267;28;19965;-77
2022/08/13 00:35:42;;;;;;;;;;;;;;;19.28;44.63;101187.94;5063133;28;20385;-76
2022/08/13 00:38:08;;;;;;;;;;;;;;;19.25;45.93;101184.50;5059736;28;20552;-76
2022/08/13 00:40:33;;;;;;;;;;;;;;;19.30;43.64;101180.84;5076336;28;19916;-76
2022/08/13 00:43:02;;;;;;;;;;;;;;;19.40;42.42;101182.09;5066490;28;20012;-76
2022/08/13 00:45:28;;;;;;;;;;;;;;;19.44;41.81;101183.63;5065604;28;20368;-76
2022/08/13 00:50:37;;;;;;;;;;;;;;;19.48;41.13;101182.53;5058786;28;19927;-76
2022/08/13 00:53:03;;;;;;;;;;;;;;;19.50;41.65;101183.31;5061156;28;19916;-76
2022/08/13 00:55:29;;;;;;;;;;;;;;;19.48;41.84;101177.25;5048341;28;20019;-76
2022/08/13 00:57:54;;;;;;;;;;;;;;;19.50;41.35;101176.25;5070707;28;19920;-77
2022/08/13 01:00:22;;;;;;;;;;;;;;;19.48;40.98;101170.22;5056345;28;19921;-77
2022/08/13 01:02:49;;;;;;;;;;;;;;;19.49;41.40;101173.72;5042458;28;20015;-77
2022/08/13 01:05:15;;;;;;;;;;;;;;;19.44;41.95;101173.94;5063431;28;19943;-77
2022/08/13 01:07:41;;;;;;;;;;;;;;;19.42;42.51;101175.81;5075723;28;19921;-77
2022/08/13 01:10:08;;;;;;;;;;;;;;;19.43;42.69;101174.84;5061856;28;20377;-77
2022/08/13 01:12:35;;;;;;;;;;;;;;;19.41;42.86;101175.88;5066503;28;19916;-77
2022/08/13 01:15:02;;;;;;;;;;;;;;;19.40;43.10;101177.63;5068924;28;19966;-77
2022/08/13 01:17:28;;;;;;;;;;;;;;;19.36;44.54;101177.88;5047887;28;19921;-77
2022/08/13 01:19:53;;;;;;;;;;;;;;;19.29;45.40;101173.84;5067632;28;20297;-77
2022/08/13 01:22:20;;;;;;;;;;;;;;;19.26;45.59;101172.19;5054866;28;20147;-76
2022/08/13 01:24:45;;;;;;;;;;;;;;;19.20;45.69;101172.50;5060232;28;20373;-76
2022/08/13 01:27:13;;;;;;;;;;;;;;;19.16;45.14;101177.06;5060995;28;19920;-76
2022/08/13 01:29:38;;;;;;;;;;;;;;;19.18;45.39;101171.75;5056687;28;20285;-77
2022/08/13 01:32:05;;;;;;;;;;;;;;;19.12;45.55;101172.91;5061815;28;19920;-77
2022/08/13 01:34:32;;;;;;;;;;;;;;;19.07;45.47;101182.81;5056442;28;20302;-77
2022/08/13 01:36:57;;;;;;;;;;;;;;;19.08;45.41;101179.22;5062242;28;19924;-77
2022/08/13 01:39:23;;;;;;;;;;;;;;;19.04;45.90;101180.34;5067079;28;19931;-77
2022/08/13 01:41:48;;;;;;;;;;;;;;;18.97;46.49;101178.94;5050276;28;19951;-77
2022/08/13 01:44:15;;;;;;;;;;;;;;;18.99;45.81;101190.22;5039748;28;19931;-77
2022/08/13 01:52:09;;;;;;;;;;;;;;;18.91;46.31;101188.91;5057858;28;19975;-77
2022/08/13 01:54:36;;;;;;;;;;;;;;;18.88;46.42;101184.63;5063178;28;19913;-77
2022/08/13 01:57:02;;;;;;;;;;;;;;;18.88;45.09;101184.63;5065172;28;19927;-77
2022/08/13 01:59:28;;;;;;;;;;;;;;;18.91;46.33;101187.13;5069276;28;19920;-77
2022/08/13 02:01:54;;;;;;;;;;;;;;;18.89;46.27;101188.13;5059657;28;20561;-76
2022/08/13 02:04:20;;;;;;;;;;;;;;;18.87;46.30;101184.72;5060148;28;19921;-76
2022/08/13 02:06:45;;;;;;;;;;;;;;;18.86;46.18;101191.75;5055468;28;19933;-76
2022/08/13 02:09:12;;;;;;;;;;;;;;;18.85;46.42;101182.16;5065495;28;19923;-76
2022/08/13 02:11:38;;;;;;;;;;;;;;;18.81;46.25;101177.94;5053468;28;20134;-76
2022/08/13 02:14:05;;;;;;;;;;;;;;;18.80;46.36;101181.53;5063757;28;19916;-76
2022/08/13 02:16:32;;;;;;;;;;;;;;;18.79;46.61;101179.81;5047195;28;20389;-77
2022/08/13 02:18:57;;;;;;;;;;;;;;;18.74;47.21;101176.56;5059979;28;20010;-77
2022/08/13 02:21:25;;;;;;;;;;;;;;;18.76;46.60;101181.75;5067018;28;20078;-77
2022/08/13 02:23:56;;;;;;;;;;;;;;;18.72;46.64;101181.03;5057457;28;19943;-77
2022/08/13 02:26:23;;;;;;;;;;;;;;;18.73;46.75;101188.00;5055884;28;19943;-77
2022/08/13 02:28:50;;;;;;;;;;;;;;;18.73;46.82;101184.50;5053219;28;19932;-77
2022/08/13 02:31:15;;;;;;;;;;;;;;;18.72;46.65;101188.91;5050750;28;19959;-77
2022/08/13 02:33:41;;;;;;;;;;;;;;;18.73;46.78;101189.78;5060309;28;20394;-77
2022/08/13 02:36:10;;;;;;;;;;;;;;;18.70;47.29;101190.78;5065674;28;20269;-77
2022/08/13 02:38:36;;;;;;;;;;;;;;;18.70;47.39;101185.53;5057778;28;19920;-77
2022/08/13 02:43:48;;;;;;;;;;;;;;;18.65;47.46;101187.53;5061149;28;19943;-77
2022/08/13 02:46:15;;;;;;;;;;;;;;;18.62;46.90;101185.03;5063480;28;20389;-77
2022/08/13 02:48:41;;;;;;;;;;;;;;;18.62;46.38;101185.03;5059015;28;19917;-77
2022/08/13 02:51:06;;;;;;;;;;;;;;;18.59;46.91;101191.31;5066866;28;19999;-77
2022/08/13 02:53:32;;;;;;;;;;;;;;;18.61;47.21;101186.81;5052873;28;19924;-77
2022/08/13 02:55:59;;;;;;;;;;;;;;;18.58;46.80;101181.69;5048062;28;20011;-76
2022/08/13 02:58:24;;;;;;;;;;;;;;;18.58;46.86;101180.84;5060748;28;19927;-76
2022/08/13 03:00:51;;;;;;;;;;;;;;;18.53;47.42;101177.59;5054167;28;19924;-76
2022/08/13 03:03:17;;;;;;;;;;;;;;;18.52;46.76;101186.38;5061200;28;19917;-76
2022/08/13 03:05:42;;;;;;;;;;;;;;;18.50;47.65;101183.00;5054989;28;19981;-76
2022/08/13 03:08:08;;;;;;;;;;;;;;;18.50;47.18;101180.34;5056677;28;20400;-77
2022/08/13 03:10:33;;;;;;;;;;;;;;;18.47;47.55;101175.25;5046509;28;19968;-77
2022/08/13 03:13:04;;;;;;;;;;;;;;;18.47;47.38;101177.88;5070538;28;19920;-77
2022/08/13 03:15:30;;;;;;;;;;;;;;;18.47;46.93;101183.13;5062707;28;19982;-76
2022/08/13 03:17:56;;;;;;;;;;;;;;;18.42;47.46;101183.31;5061193;28;19920;-76
2022/08/13 03:20:21;;;;;;;;;;;;;;;18.42;47.37;101190.38;5059374;28;20067;-76
2022/08/13 03:22:51;;;;;;;;;;;;;;;18.40;47.34;101181.66;5063050;28;19924;-76
2022/08/13 03:25:17;;;;;;;;;;;;;;;18.38;47.37;101189.66;5062757;28;20541;-76
2022/08/13 03:27:42;;;;;;;;;;;;;;;18.39;47.47;101195.78;5054676;28;19913;-76
2022/08/13 03:30:09;;;;;;;;;;;;;;;18.36;47.27;101193.28;5063298;28;19920;-76
2022/08/13 03:32:40;;;;;;;;;;;;;;;18.36;47.14;101193.28;5068744;28;19917;-76
2022/08/13 03:35:05;;;;;;;;;;;;;;;18.38;47.34;101191.41;5065982;28;19921;-76
2022/08/13 03:37:34;;;;;;;;;;;;;;;18.34;47.17;101192.47;5070700;28;19916;-76
2022/08/13 03:40:00;;;;;;;;;;;;;;;18.34;47.93;101195.97;5059405;28;20313;-76
2022/08/13 03:42:25;;;;;;;;;;;;;;;18.33;47.51;101193.41;5072507;28;20327;-76
2022/08/13 03:44:50;;;;;;;;;;;;;;;18.32;47.89;101189.94;5059178;28;19927;-76
2022/08/13 03:47:15;;;;;;;;;;;;;;;18.31;47.38;101187.34;5062567;28;19928;-76
2022/08/13 03:49:41;;;;;;;;;;;;;;;18.30;47.71;101183.91;5063237;28;19924;-76
2022/08/13 03:52:06;;;;;;;;;;;;;;;18.30;47.89;101185.66;5067166;28;19960;-76
2022/08/13 03:54:31;;;;;;;;;;;;;;;18.30;47.40;101178.66;5064397;28;19978;-76
2022/08/13 03:56:57;;;;;;;;;;;;;;;18.28;47.72;101187.50;5060159;28;19928;-76
2022/08/13 03:59:22;;;;;;;;;;;;;;;18.32;47.30;101183.81;5064055;28;19925;-76
2022/08/13 04:01:53;;;;;;;;;;;;;;;18.27;47.55;101181.41;5064774;28;19927;-76
2022/08/13 04:04:20;;;;;;;;;;;;;;;18.28;47.28;101182.25;5061368;28;19925;-76
2022/08/13 04:06:45;;;;;;;;;;;;;;;18.27;47.26;101184.03;5053149;28;19939;-76
2022/08/13 04:09:11;;;;;;;;;;;;;;;18.18;47.48;101182.66;5073972;28;20521;-76
2022/08/13 04:11:36;;;;;;;;;;;;;;;18.19;47.29;101186.16;5077498;28;19925;-76
2022/08/13 04:14:01;;;;;;;;;;;;;;;18.18;47.87;101186.22;5065257;28;19924;-76
2022/08/13 04:16:27;;;;;;;;;;;;;;;18.16;47.75;101187.16;5066977;28;20320;-76
2022/08/13 04:18:54;;;;;;;;;;;;;;;18.14;48.30;101191.63;5049222;28;19921;-76
2022/08/13 04:21:24;;;;;;;;;;;;;;;18.14;47.87;101190.78;5062480;28;19913;-76
2022/08/13 04:23:52;;;;;;;;;;;;;;;18.13;47.70;101200.44;5071711;28;20396;-76
2022/08/13 04:26:23;;;;;;;;;;;;;;;18.12;48.37;101203.16;5059236;28;19925;-76
2022/08/13 04:28:48;;;;;;;;;;;;;;;18.12;48.34;101203.97;5057266;28;19973;-76
2022/08/13 04:31:15;;;;;;;;;;;;;;;18.10;48.11;101197.09;5027175;28;20011;-76
2022/08/13 04:33:40;;;;;;;;;;;;;;;18.10;48.82;101199.72;5063264;28;19928;-76
2022/08/13 04:36:06;;;;;;;;;;;;;;;18.11;48.35;101204.91;5062259;28;19926;-76
2022/08/13 04:38:32;;;;;;;;;;;;;;;18.12;48.94;101200.53;5059882;28;19976;-76
2022/08/13 04:40:57;;;;;;;;;;;;;;;18.09;48.57;101206.75;5057661;28;19964;-76
2022/08/13 04:43:23;;;;;;;;;;;;;;;18.08;48.55;101201.56;5061180;28;20000;-76
2022/08/13 04:45:48;;;;;;;;;;;;;;;18.10;48.52;101195.31;5050600;28;19924;-76
2022/08/13 04:48:15;;;;;;;;;;;;;;;18.11;48.76;101204.91;5058662;28;20377;-76
2022/08/13 04:50:41;;;;;;;;;;;;;;;18.11;48.73;101210.19;5059512;28;19924;-76
2022/08/13 04:53:08;;;;;;;;;;;;;;;18.09;49.65;101198.84;5063171;28;19920;-76
2022/08/13 04:55:35;;;;;;;;;;;;;;;18.09;49.52;101209.38;5060037;28;20353;-76
2022/08/13 04:58:00;;;;;;;;;;;;;;;18.14;49.12;101203.91;5055265;28;19920;-76
2022/08/13 05:00:32;;;;;;;;;;;;;;;18.12;49.38;101213.66;5060944;28;20416;-76
2022/08/13 05:03:06;;;;;;;;;;;;;;;18.11;49.24;101210.19;5055104;28;20015;-76
2022/08/13 05:05:31;;;;;;;;;;;;;;;18.10;49.93;101216.34;5057704;28;19935;-76
2022/08/13 05:07:57;;;;;;;;;;;;;;;18.14;49.56;101210.03;5056334;28;20023;-76
2022/08/13 05:10:23;;;;;;;;;;;;;;;18.16;49.49;101218.69;5053419;28;19924;-76
2022/08/13 05:12:48;;;;;;;;;;;;;;;18.18;49.52;101216.03;5057077;28;19921;-76
2022/08/13 05:15:13;;;;;;;;;;;;;;;18.20;50.13;101218.56;5058825;28;20018;-76
2022/08/13 05:17:39;;;;;;;;;;;;;;;18.18;50.16;101223.03;5056392;28;19921;-76
2022/08/13 05:20:06;;;;;;;;;;;;;;;18.19;50.80;101222.97;5062171;28;19927;-76
2022/08/13 05:22:31;;;;;;;;;;;;;;;18.18;51.02;101228.31;5058782;28;20448;-76
2022/08/13 05:24:56;;;;;;;;;;;;;;;18.20;51.27;101216.78;5061761;28;20000;-76
2022/08/13 05:27:22;;;;;;;;;;;;;;;18.24;51.00;101215.75;5055978;28;19959;-76
2022/08/13 05:29:47;;;;;;;;;;;;;;;18.21;51.37;101218.50;5058590;28;19952;-76
2022/08/13 05:32:13;;;;;;;;;;;;;;;18.23;51.02;101219.28;5054925;28;20003;-76
2022/08/13 05:34:38;;;;;;;;;;;;;;;18.25;50.76;101221.81;5056472;28;19920;-76
2022/08/13 05:37:04;;;;;;;;;;;;;;;18.26;51.70;101223.53;5059393;28;19944;-76
2022/08/13 05:39:30;;;;;;;;;;;;;;;18.29;51.10;101228.66;5058069;28;19942;-76
2022/08/13 05:41:55;;;;;;;;;;;;;;;18.32;51.06;101228.53;5056769;28;20445;-76
2022/08/13 05:44:21;;;;;;;;;;;;;;;18.32;52.20;101231.16;5058185;28;19928;-76
2022/08/13 05:46:47;;;;;;;;;;;;;;;18.36;51.82;101230.09;5053485;28;19925;-76
2022/08/13 05:49:13;;;;;;;;;;;;;;;18.39;51.29;101227.34;5054288;28;19921;-76
2022/08/13 05:51:38;;;;;;;;;;;;;;;18.40;50.50;101231.66;5058789;28;19931;-76
2022/08/13 05:54:03;;;;;;;;;;;;;;;18.37;50.87;101226.53;5058859;28;20377;-76
2022/08/13 05:56:37;;;;;;;;;;;;;;;18.43;50.40;101234.13;5053819;28;20313;-76
2022/08/13 05:59:06;;;;;;;;;;;;;;;18.43;49.97;101227.09;5064330;28;19920;-76
2022/08/13 06:04:18;;;;;;;;;;;;;;;18.45;50.06;101227.91;5068032;28;19927;-76
2022/08/13 06:06:44;;;;;;;;;;;;;;;18.46;50.03;101234.88;5058883;28;19933;-76
2022/08/13 06:09:09;;;;;;;;;;;;;;;18.53;49.09;101233.69;5061194;28;19916;-76
2022/08/13 06:11:35;;;;;;;;;;;;;;;18.54;49.90;101234.56;5063678;28;20433;-76
2022/08/13 06:14:00;;;;;;;;;;;;;;;18.56;49.04;101232.69;5057362;28;20667;-76
2022/08/13 06:16:28;;;;;;;;;;;;;;;18.61;48.68;101228.06;5056886;28;19947;-76
2022/08/13 06:18:56;;;;;;;;;;;;;;;18.61;49.26;101230.69;5052838;28;19958;-76
2022/08/13 06:21:21;;;;;;;;;;;;;;;18.63;49.59;101234.09;5039103;28;19921;-77
2022/08/13 06:23:47;;;;;;;;;;;;;;;18.64;49.79;101227.91;5056273;28;19935;-76
2022/08/13 06:26:17;;;;;;;;;;;;;;;18.70;48.55;101235.53;5040968;28;19925;-76
2022/08/13 06:28:44;;;;;;;;;;;;;;;18.74;48.12;101229.19;5058998;28;19938;-76
2022/08/13 06:31:13;;;;;;;;;;;;;;;18.75;48.26;101228.25;5068827;28;20422;-76
2022/08/13 06:33:38;;;;;;;;;;;;;;;18.78;49.41;101224.66;5064697;28;19921;-75
2022/08/13 06:36:05;;;;;;;;;;;;;;;18.79;48.00;101232.47;5075786;28;19935;-76
2022/08/13 06:38:35;;;;;;;;;;;;;;;18.83;48.86;101233.16;5063709;28;19920;-76
2022/08/13 06:41:05;;;;;;;;;;;;;;;18.84;49.01;101234.88;5073794;28;21239;-76
2022/08/13 06:43:32;;;;;;;;;;;;;;;18.88;47.81;101237.28;5067294;28;20550;-76
2022/08/13 06:45:59;;;;;;;;;;;;;;;18.89;48.20;101244.28;5054957;28;20016;-76
2022/08/13 06:48:26;;;;;;;;;;;;;;;18.92;47.65;101238.00;5058487;28;19920;-76
2022/08/13 06:50:51;;;;;;;;;;;;;;;18.92;47.80;101232.72;5060406;28;20266;-76
2022/08/13 06:53:17;;;;;;;;;;;;;;;18.89;49.02;101232.88;5058592;28;19923;-76
2022/08/13 06:55:44;;;;;;;;;;;;;;;18.89;49.09;101241.63;5059303;28;19920;-76
2022/08/13 06:58:10;;;;;;;;;;;;;;;18.93;48.64;101235.28;5043705;28;19961;-76
2022/08/13 07:00:38;;;;;;;;;;;;;;;19.01;47.16;101233.16;5066470;28;19928;-76
2022/08/13 07:03:03;;;;;;;;;;;;;;;19.04;46.52;101242.69;5042797;28;19920;-76
2022/08/13 07:05:33;;;;;;;;;;;;;;;19.04;46.64;101237.41;5060465;28;19925;-76
2022/08/13 07:08:02;;;;;;;;;;;;;;;19.06;47.09;101241.66;5064148;28;19920;-76
2022/08/13 07:10:27;;;;;;;;;;;;;;;19.10;46.82;101239.75;5064591;28;20073;-76
2022/08/13 07:12:53;;;;;;;;;;;;;;;19.12;46.20;101238.75;5061908;28;20007;-76
2022/08/13 07:15:18;;;;;;;;;;;;;;;19.13;46.93;101240.41;5069498;28;20396;-76
2022/08/13 07:17:45;;;;;;;;;;;;;;;19.14;46.72;101239.50;5064301;28;21151;-76
2022/08/13 07:20:11;;;;;;;;;;;;;;;19.18;46.03;101241.06;5047455;28;19920;-76
2022/08/13 07:22:36;;;;;;;;;;;;;;;19.17;47.15;101242.00;5063392;28;19935;-76
2022/08/13 07:25:02;;;;;;;;;;;;;;;19.14;49.27;101242.13;5061517;28;19932;-76
2022/08/13 07:27:28;;;;;;;;;;;;;;;19.15;47.28;101240.38;5064264;28;19928;-76
2022/08/13 07:29:53;;;;;;;;;;;;;;;19.20;47.32;101248.88;5062852;28;19974;-76
2022/08/13 07:32:19;;;;;;;;;;;;;;;19.23;46.86;101240.81;5064849;28;19975;-76
2022/08/13 07:34:45;;;;;;;;;;;;;;;19.23;47.46;101246.09;5063121;28;19926;-76
2022/08/13 07:37:17;;;;;;;;;;;;;;;19.22;48.06;101249.69;5057318;28;19935;-76
2022/08/13 07:39:44;;;;;;;;;;;;;;;19.23;47.47;101240.81;5066547;28;20416;-76
2022/08/13 07:42:10;;;;;;;;;;;;;;;19.22;48.93;101245.25;5049796;28;19955;-76
2022/08/13 07:44:35;;;;;;;;;;;;;;;19.21;47.82;101238.28;5063787;28;20055;-76
2022/08/13 07:47:01;;;;;;;;;;;;;;;19.23;48.84;101244.31;5058207;28;19937;-76
2022/08/13 07:49:27;;;;;;;;;;;;;;;19.24;48.43;101235.50;5057000;28;19925;-76
2022/08/13 07:51:53;;;;;;;;;;;;;;;19.30;47.21;101239.66;5068121;28;20351;-76
2022/08/13 07:54:18;;;;;;;;;;;;;;;19.31;46.77;101235.22;5065018;28;19949;-76
2022/08/13 07:56:47;;;;;;;;;;;;;;;19.29;48.47;101235.28;5061456;28;19971;-76
2022/08/13 07:59:18;;;;;;;;;;;;;;;19.25;48.62;101237.19;5061350;28;19921;-77
2022/08/13 08:01:54;;;;;;;;;;;;;;;19.32;47.10;101234.28;5046879;28;19970;-77
2022/08/13 08:04:20;;;;;;;;;;;;;;;19.32;48.05;101243.03;5058488;28;20266;-77
2022/08/13 08:06:46;;;;;;;;;;;;;;;19.40;46.95;101240.03;5061063;28;19921;-77
2022/08/13 08:09:16;;;;;;;;;;;;;;;19.35;47.76;101248.16;5066343;28;19923;-77
2022/08/13 08:14:27;;;;;;;;;;;;;;;19.38;46.67;101237.47;5059816;28;19935;-77
2022/08/13 08:16:52;;;;;;;;;;;;;;;19.35;50.64;101244.66;5059088;28;19924;-77
2022/08/13 08:19:18;;;;;;;;;;;;;;;19.41;46.56;101239.09;5057054;28;19932;-76
2022/08/13 08:21:43;;;;;;;;;;;;;;;19.35;50.69;101245.53;5053464;28;20035;-76
2022/08/13 08:24:08;;;;;;;;;;;;;;;19.47;46.92;101238.78;5062913;28;19928;-76
2022/08/13 08:26:34;;;;;;;;;;;;;;;19.42;49.03;101240.81;5062543;28;19924;-76
2022/08/13 08:29:03;;;;;;;;;;;;;;;19.41;47.35;101239.09;5063324;28;19995;-77
2022/08/13 08:31:29;;;;;;;;;;;;;;;19.39;48.69;101249.72;5061098;28;20043;-77
2022/08/13 08:33:56;;;;;;;;;;;;;;;19.40;49.48;101237.41;5057535;28;19943;-77
2022/08/13 08:36:22;;;;;;;;;;;;;;;19.41;47.98;101239.94;5069505;28;19977;-77
2022/08/13 08:44:20;;;;;;;;;;;;;;;19.42;49.05;101238.19;5057581;28;19931;-77
2022/08/13 08:46:48;;;;;;;;;;;;;;;19.47;48.10;101228.25;5060485;28;19925;-76
2022/08/13 08:49:15;;;;;;;;;;;;;;;19.55;47.21;101231.38;5058811;28;19920;-76
2022/08/13 08:51:41;;;;;;;;;;;;;;;19.58;46.34;101225.94;5069111;28;19956;-76
2022/08/13 08:54:06;;;;;;;;;;;;;;;19.47;51.64;101228.25;5056808;28;19983;-76
2022/08/13 08:56:34;;;;;;;;;;;;;;;19.44;55.77;101233.66;5067707;28;19931;-76
2022/08/13 08:59:00;;;;;;;;;;;;;;;19.69;46.65;101224.47;5060270;28;19978;-76
2022/08/13 09:01:25;;;;;;;;;;;;;;;19.69;45.59;101224.47;5056491;28;19921;-76
2022/08/13 09:03:54;;;;;;;;;;;;;;;19.59;45.95;101222.34;5043119;28;19925;-76
2022/08/13 09:06:21;;;;;;;;;;;;;;;19.52;54.16;101228.88;5061561;28;19981;-76
2022/08/13 09:08:47;;;;;;;;;;;;;;;19.41;57.72;101229.41;5061450;28;19931;-76
2022/08/13 09:11:14;;;;;;;;;;;;;;;19.48;56.02;101219.44;5060834;28;20370;-76
2022/08/13 09:13:40;;;;;;;;;;;;;;;19.44;55.94;101217.88;5065962;28;20379;-77
2022/08/13 09:16:06;;;;;;;;;;;;;;;19.50;52.84;101213.13;5062077;28;19928;-77
2022/08/13 09:18:32;;;;;;;;;;;;;;;19.66;49.94;101216.72;5055260;28;20437;-77
2022/08/13 09:20:58;;;;;;;;;;;;;;;19.65;48.85;101204.44;5058538;28;19912;-77
2022/08/13 09:23:24;;;;;;;;;;;;;;;19.84;45.88;101193.81;5059850;28;19924;-77
2022/08/13 09:25:51;;;;;;;;;;;;;;;19.86;45.01;101197.22;5059225;28;20401;-77
2022/08/13 09:28:22;;;;;;;;;;;;;;;19.58;56.93;101210.97;5062298;28;19931;-77
2022/08/13 09:30:49;;;;;;;;;;;;;;;19.49;57.84;101207.97;5064302;28;20013;-77
2022/08/13 09:33:14;;;;;;;;;;;;;;;19.68;56.44;101206.06;5058173;28;20495;-78
2022/08/13 09:35:40;;;;;;;;;;;;;;;19.67;55.35;101202.59;5060130;28;20027;-79
2022/08/13 09:38:09;;;;;;;;;;;;;;;19.64;54.61;101196.66;5057076;28;19921;-78
2022/08/13 09:40:38;;;;;;;;;;;;;;;19.64;52.58;101192.19;5056612;28;19921;-78
2022/08/13 19:21:39;;;;;;;;;;;;;;;20.44;61.74;100777.19;5026076;28;20244;-77
2022/08/13 19:24:05;;;;;;;;;;;;;;;20.45;62.62;100773.56;5006349;28;20546;-76
2022/08/13 19:26:31;;;;;;;;;;;;;;;20.46;60.97;100775.28;5017655;28;19925;-77
2022/08/13 19:28:56;;;;;;;;;;;;;;;20.46;61.56;100772.66;5016259;28;20408;-77
2022/08/13 19:31:21;;;;;;;;;;;;;;;20.44;62.45;100780.66;5022144;28;19965;-77
2022/08/13 19:33:48;;;;;;;;;;;;;;;20.44;62.67;100780.66;4996372;28;19929;-77
2022/08/13 19:36:14;;;;;;;;;;;;;;;20.45;62.11;100778.84;5017355;28;19925;-77
2022/08/13 19:38:42;;;;;;;;;;;;;;;20.43;62.06;100778.13;5021823;28;19921;-77
2022/08/13 19:41:08;;;;;;;;;;;;;;;20.44;61.28;100777.19;5023563;28;19975;-77
2022/08/13 19:43:34;;;;;;;;;;;;;;;20.43;61.62;100780.75;5021027;28;19925;-77
2022/08/13 19:46:00;;;;;;;;;;;;;;;20.43;61.42;100781.59;5019072;28;19964;-77
2022/08/13 19:48:26;;;;;;;;;;;;;;;20.41;62.03;100783.50;5021391;28;19991;-77
2022/08/13 19:50:52;;;;;;;;;;;;;;;20.40;58.39;100780.94;5021505;28;20379;-77
2022/08/13 19:53:17;;;;;;;;;;;;;;;20.42;57.45;100779.03;5009736;28;19928;-77
2022/08/13 19:55:43;;;;;;;;;;;;;;;20.42;57.95;100781.69;5024947;28;19971;-77
2022/08/13 19:58:08;;;;;;;;;;;;;;;20.39;61.09;100782.72;5021411;28;19921;-77
2022/08/13 20:00:35;;;;;;;;;;;;;;;20.40;57.57;100780.94;5023134;28;19917;-77
2022/08/13 20:03:02;;;;;;;;;;;;;;;20.42;54.00;100773.78;5018809;28;19924;-77
2022/08/13 20:05:30;;;;;;;;;;;;;;;20.43;52.46;100784.25;5019395;28;19921;-77
2022/08/13 20:07:57;;;;;;;;;;;;;;;20.43;53.73;100786.88;5021843;28;19936;-77
2022/08/13 20:10:27;;;;;;;;;;;;;;;20.41;52.30;100786.13;5019220;28;20023;-77
2022/08/13 20:12:52;;;;;;;;;;;;;;;20.40;51.08;100780.94;5022294;28;19928;-77
2022/08/13 20:15:19;;;;;;;;;;;;;;;20.42;50.98;100790.44;5017246;28;19917;-77
2022/08/13 20:17:44;;;;;;;;;;;;;;;20.40;52.13;100783.56;5018421;28;19917;-76
2022/08/13 20:20:15;;;;;;;;;;;;;;;20.37;51.92;100779.34;5020817;28;20268;-77
2022/08/13 20:22:40;;;;;;;;;;;;;;;20.33;52.59;100783.94;5026494;28;19925;-77
2022/08/13 20:25:09;;;;;;;;;;;;;;;20.37;47.67;100778.50;5021301;28;20337;-77
2022/08/13 20:27:35;;;;;;;;;;;;;;;20.37;48.85;100786.41;5022957;28;19929;-77
2022/08/13 20:30:01;;;;;;;;;;;;;;;20.35;50.28;100786.50;5024314;28;19931;-77
2022/08/13 20:32:27;;;;;;;;;;;;;;;20.32;50.54;100786.69;5027653;28;19925;-77
2022/08/13 20:34:52;;;;;;;;;;;;;;;20.27;50.69;100781.69;5018413;28;19924;-77
2022/08/13 20:37:18;;;;;;;;;;;;;;;20.26;50.84;100781.78;5016698;28;19967;-76
2022/08/13 20:39:43;;;;;;;;;;;;;;;20.24;52.00;100791.56;5016980;28;20442;-77
2022/08/13 20:42:09;;;;;;;;;;;;;;;20.21;51.75;100782.06;5016165;28;19924;-77
2022/08/13 20:44:34;;;;;;;;;;;;;;;20.19;52.07;100783.94;5016417;28;20062;-77
2022/08/13 20:47:00;;;;;;;;;;;;;;;20.23;50.88;100784.63;5017568;28;19996;-77
2022/08/13 20:49:25;;;;;;;;;;;;;;;20.22;48.77;100783.75;5021589;28;19926;-77
2022/08/13 20:51:51;;;;;;;;;;;;;;;20.19;49.99;100783.94;5023041;28;19917;-77
2022/08/13 20:54:16;;;;;;;;;;;;;;;20.15;50.98;100787.69;5024201;28;19925;-77
2022/08/13 20:56:42;;;;;;;;;;;;;;;20.15;51.30;100794.75;5026367;28;20004;-76
2022/08/13 20:59:07;;;;;;;;;;;;;;;20.12;51.04;100785.25;5024625;28;20382;-77
2022/08/13 21:01:33;;;;;;;;;;;;;;;20.10;50.73;100781.00;5020015;28;19925;-77
2022/08/13 21:03:59;;;;;;;;;;;;;;;20.10;50.14;100779.22;5012099;28;19918;-77
2022/08/13 21:06:24;;;;;;;;;;;;;;;20.09;50.08;100785.44;4995353;28;19933;-77
2022/08/13 21:08:50;;;;;;;;;;;;;;;20.11;50.45;100775.66;5027402;28;19925;-77
2022/08/13 21:11:15;;;;;;;;;;;;;;;20.09;50.67;100787.22;5015195;28;20302;-77
2022/08/13 21:13:40;;;;;;;;;;;;;;;20.06;51.26;100793.50;5018353;28;19921;-77
2022/08/13 21:16:06;;;;;;;;;;;;;;;20.05;51.63;100791.81;5022268;28;19935;-77
2022/08/13 21:18:31;;;;;;;;;;;;;;;20.00;52.31;100800.91;5021268;28;20420;-77
2022/08/13 21:20:56;;;;;;;;;;;;;;;19.97;52.39;100804.59;5014485;28;20449;-77
2022/08/13 21:23:22;;;;;;;;;;;;;;;20.01;50.03;100792.94;5032668;28;19932;-77
2022/08/13 21:25:47;;;;;;;;;;;;;;;19.98;50.67;100794.91;5043216;28;19932;-77
2022/08/13 21:28:12;;;;;;;;;;;;;;;19.96;50.30;100789.72;5044019;28;19928;-77
2022/08/13 21:30:38;;;;;;;;;;;;;;;19.91;51.61;100791.75;5044181;28;19925;-77
2022/08/13 21:33:05;;;;;;;;;;;;;;;19.95;50.33;100793.28;5041982;28;19908;-77
2022/08/13 21:35:32;;;;;;;;;;;;;;;19.97;50.02;100786.13;5043857;28;19928;-77
2022/08/13 21:37:58;;;;;;;;;;;;;;;19.94;51.82;100786.31;5034409;28;19928;-77
2022/08/13 21:40:24;;;;;;;;;;;;;;;19.90;52.14;100790.09;5040454;28;19917;-77
2022/08/13 21:42:50;;;;;;;;;;;;;;;19.89;51.87;100790.16;5045219;28;20008;-77
2022/08/13 21:45:16;;;;;;;;;;;;;;;19.98;48.64;100786.97;5046535;28;20023;-77
2022/08/13 21:47:43;;;;;;;;;;;;;;;19.99;49.10;100792.19;5072632;28;20000;-77
2022/08/13 21:50:08;;;;;;;;;;;;;;;19.97;48.93;100786.13;5060193;28;19921;-77
2022/08/13 21:52:37;;;;;;;;;;;;;;;19.88;51.04;100791.94;5065196;28;19991;-77
2022/08/13 21:55:03;;;;;;;;;;;;;;;19.89;51.01;100798.06;5056430;28;19920;-77
2022/08/13 21:57:28;;;;;;;;;;;;;;;19.88;50.63;100788.50;5059934;28;19921;-77
2022/08/13 21:59:53;;;;;;;;;;;;;;;19.84;50.55;100794.88;5066331;28;19920;-77
2022/08/13 22:02:21;;;;;;;;;;;;;;;19.82;50.81;100791.50;5062003;28;19925;-77
2022/08/13 22:04:47;;;;;;;;;;;;;;;19.81;51.45;100798.53;5054562;28;19995;-77
2022/08/13 22:07:13;;;;;;;;;;;;;;;19.78;50.92;100798.72;5065634;28;19928;-76
2022/08/13 22:09:39;;;;;;;;;;;;;;;19.74;51.86;100805.94;5059993;28;19912;-77
2022/08/13 22:12:04;;;;;;;;;;;;;;;19.72;51.59;100804.34;5066044;28;19916;-77
2022/08/13 22:14:31;;;;;;;;;;;;;;;19.70;53.20;100807.06;5062143;28;19921;-77
2022/08/13 22:16:57;;;;;;;;;;;;;;;19.69;51.84;100812.44;5053968;28;20381;-77
2022/08/13 22:19:23;;;;;;;;;;;;;;;19.67;52.23;100809.88;5063219;28;19924;-77
2022/08/13 22:21:48;;;;;;;;;;;;;;;19.65;52.39;100805.63;5061240;28;19920;-77
2022/08/13 22:24:13;;;;;;;;;;;;;;;19.72;50.52;100802.56;5060266;28;19924;-77
2022/08/13 22:26:38;;;;;;;;;;;;;;;19.78;48.39;100802.22;5060423;28;20019;-77
2022/08/13 22:31:48;;;;;;;;;;;;;;;19.85;47.24;100804.50;5062497;28;20016;-77
2022/08/13 22:34:14;;;;;;;;;;;;;;;19.86;47.04;100801.75;5057507;28;20012;-77